createdAt,value
2023-02-27T00:03:26.666Z,2.20
2023-02-27T00:07:28.925Z,4.30
2023-02-27T00:11:30.860Z,2.63
2023-02-27T00:15:32.996Z,2.90
2023-02-27T00:19:34.849Z,2.70
2023-02-27T00:23:36.942Z,2.70
2023-02-27T00:27:39.221Z,2.67
2023-02-27T00:31:41.241Z,3.60
2023-02-27T00:35:43.128Z,3.13
2023-02-27T00:39:44.935Z,3.20
2023-02-27T00:43:46.724Z,2.27
2023-02-27T00:47:48.703Z,2.67
2023-02-27T00:51:50.688Z,4.23
2023-02-27T00:55:52.575Z,4.30
2023-02-27T00:59:54.369Z,2.93
2023-02-27T01:03:56.178Z,2.37
2023-02-27T01:07:58.079Z,3.10
2023-02-27T01:12:00.107Z,2.10
2023-02-27T01:16:02.062Z,2.60
2023-02-27T01:20:05.560Z,5.23
2023-02-27T01:24:08.198Z,4.43
2023-02-27T01:28:10.062Z,2.97
2023-02-27T01:32:11.925Z,2.83
2023-02-27T01:36:13.791Z,4.53
2023-02-27T01:40:16.002Z,3.30
2023-02-27T01:44:27.195Z,4.00
2023-02-27T01:48:34.053Z,3.70
2023-02-27T01:52:36.467Z,2.53
2023-02-27T01:56:38.298Z,2.70
2023-02-27T02:00:40.417Z,2.63
2023-02-27T02:04:42.232Z,2.87
2023-02-27T02:08:48.586Z,4.30
2023-02-27T02:12:50.499Z,4.87
2023-02-27T02:17:30.634Z,3.33
2023-02-27T02:22:41.251Z,4.47
2023-02-27T02:26:59.159Z,2.70
2023-02-27T02:31:18.780Z,3.50
2023-02-27T02:35:53.716Z,3.43
2023-02-27T02:40:35.358Z,2.93
2023-02-27T02:44:51.597Z,3.43
2023-02-27T02:49:01.638Z,4.43
2023-02-27T02:53:38.533Z,2.47
2023-02-27T02:57:53.119Z,2.40
2023-02-27T03:02:10.278Z,2.10
2023-02-27T03:06:24.192Z,3.70
2023-02-27T03:10:56.176Z,3.27
2023-02-27T03:15:23.171Z,2.50
2023-02-27T03:19:45.218Z,3.33
2023-02-27T03:23:54.361Z,3.23
2023-02-27T03:28:00.665Z,2.83
2023-02-27T03:32:09.374Z,7.47
2023-02-27T03:36:29.365Z,2.43
2023-02-27T03:40:36.748Z,2.90
2023-02-27T03:45:13.727Z,3.63
2023-02-27T03:49:15.457Z,4.87
2023-02-27T03:54:12.668Z,3.60
2023-02-27T03:58:14.389Z,1.50
2023-02-27T04:02:16.520Z,3.13
2023-02-27T04:06:37.381Z,2.97
2023-02-27T04:11:10.082Z,2.40
2023-02-27T04:15:51.720Z,4.17
2023-02-27T04:20:36.851Z,3.80
2023-02-27T04:25:06.721Z,5.83
2023-02-27T04:29:29.290Z,4.37
2023-02-27T04:34:01.324Z,3.37
2023-02-27T04:38:18.614Z,3.27
2023-02-27T04:42:26.246Z,4.60
2023-02-27T04:46:28.802Z,2.10
2023-02-27T04:50:45.681Z,2.50
2023-02-27T04:54:59.342Z,2.07
2023-02-27T04:59:06.329Z,3.97
2023-02-27T05:03:31.324Z,4.17
2023-02-27T05:07:59.836Z,2.77
2023-02-27T05:12:05.767Z,7.20
2023-02-27T05:16:23.946Z,2.43
2023-02-27T05:20:27.356Z,4.00
2023-02-27T05:25:04.140Z,3.87
2023-02-27T05:29:54.188Z,3.07
2023-02-27T05:34:20.529Z,3.97
2023-02-27T05:38:43.429Z,3.20
2023-02-27T05:42:53.340Z,3.73
2023-02-27T05:47:00.897Z,7.23
2023-02-27T05:51:02.651Z,3.97
2023-02-27T05:55:32.782Z,5.83
2023-02-27T06:00:03.399Z,5.30
2023-02-27T06:04:06.897Z,4.17
2023-02-27T06:08:14.346Z,4.67
2023-02-27T06:12:16.324Z,4.80
2023-02-27T06:16:27.018Z,5.13
2023-02-27T06:20:29.224Z,3.43
2023-02-27T06:24:31.248Z,3.10
2023-02-27T06:28:33.043Z,5.90
2023-02-27T06:32:34.975Z,4.63
2023-02-27T06:36:36.856Z,3.63
2023-02-27T06:40:40.280Z,4.00
2023-02-27T06:44:42.213Z,3.07
2023-02-27T06:48:44.201Z,3.47
2023-02-27T06:52:46.029Z,4.90
2023-02-27T06:56:49.683Z,4.87
2023-02-27T07:00:51.924Z,4.57
2023-02-27T07:04:53.868Z,4.83
2023-02-27T07:09:06.318Z,3.97
2023-02-27T07:13:08.510Z,4.67
2023-02-27T07:17:11.551Z,4.23
2023-02-27T07:21:15.254Z,5.37
2023-02-27T07:25:17.354Z,4.97
2023-02-27T07:29:19.177Z,4.00
2023-02-27T07:33:20.993Z,4.33
2023-02-27T07:37:22.930Z,3.33
2023-02-27T07:41:30.597Z,2.87
2023-02-27T07:45:32.997Z,3.70
2023-02-27T07:49:34.801Z,4.10
2023-02-27T07:53:36.623Z,5.23
2023-02-27T07:57:38.492Z,4.13
2023-02-27T08:01:40.514Z,3.30
2023-02-27T08:05:42.311Z,4.53
2023-02-27T08:09:44.286Z,5.83
2023-02-27T08:14:03.188Z,4.10
2023-02-27T08:18:05.243Z,4.33
2023-02-27T08:22:07.444Z,6.43
2023-02-27T08:26:09.364Z,5.70
2023-02-27T08:30:12.344Z,4.63
2023-02-27T08:34:16.457Z,3.53
2023-02-27T08:38:21.497Z,3.33
2023-02-27T08:42:24.210Z,5.07
2023-02-27T08:46:27.775Z,4.87
2023-02-27T08:50:29.870Z,2.70
2023-02-27T08:54:31.909Z,2.77
2023-02-27T08:58:35.835Z,4.43
2023-02-27T09:02:37.805Z,3.43
2023-02-27T09:06:39.773Z,4.50
2023-02-27T09:10:41.862Z,5.13
2023-02-27T09:14:43.859Z,3.83
2023-02-27T09:18:45.882Z,3.63
2023-02-27T09:22:47.664Z,4.87
2023-02-27T09:26:50.160Z,5.23
2023-02-27T09:30:52.062Z,5.80
2023-02-27T09:34:53.915Z,4.13
2023-02-27T09:38:55.728Z,6.50
2023-02-27T09:43:01.479Z,4.43
2023-02-27T09:47:09.783Z,5.40
2023-02-27T09:51:11.868Z,4.40
2023-02-27T09:55:19.444Z,5.07
2023-02-27T10:00:01.632Z,4.77
2023-02-27T10:04:20.977Z,7.43
2023-02-27T10:09:07.576Z,3.60
2023-02-27T10:13:43.695Z,4.90
2023-02-27T10:17:50.141Z,3.50
2023-02-27T10:21:52.172Z,4.73
2023-02-27T10:25:55.242Z,3.90
2023-02-27T10:30:27.311Z,4.43
2023-02-27T10:34:31.416Z,6.03
2023-02-27T10:38:34.219Z,3.67
2023-02-27T10:42:38.483Z,5.80
2023-02-27T10:46:41.508Z,7.57
2023-02-27T10:50:46.556Z,6.73
2023-02-27T10:54:48.488Z,5.97
2023-02-27T10:59:06.924Z,4.00
2023-02-27T11:03:26.928Z,3.60
2023-02-27T11:07:38.836Z,3.80
2023-02-27T11:11:40.654Z,3.67
2023-02-27T11:15:42.753Z,3.50
2023-02-27T11:19:44.608Z,3.77
2023-02-27T11:24:03.329Z,3.53
2023-02-27T11:28:29.946Z,5.47
2023-02-27T11:32:44.215Z,4.80
2023-02-27T11:36:47.840Z,5.13
2023-02-27T11:40:58.170Z,3.13
2023-02-27T11:46:18.422Z,3.43
2023-02-27T11:50:02.656Z,2.53
2023-02-27T11:54:34.281Z,2.57
2023-02-27T11:58:49.190Z,4.40
2023-02-27T12:03:36.609Z,4.07
2023-02-27T12:08:18.152Z,2.93
2023-02-27T12:12:29.001Z,2.33
2023-02-27T12:16:44.026Z,4.13
2023-02-27T12:21:03.490Z,3.20
2023-02-27T12:25:07.992Z,3.50
2023-02-27T12:29:30.421Z,3.97
2023-02-27T12:34:01.717Z,2.53
2023-02-27T12:38:05.681Z,3.37
2023-02-27T12:42:39.375Z,4.17
2023-02-27T12:46:58.976Z,3.13
2023-02-27T12:51:24.882Z,2.63
2023-02-27T12:55:44.145Z,3.63
2023-02-27T12:59:57.035Z,2.77
2023-02-27T13:04:13.290Z,3.13
2023-02-27T13:08:25.649Z,6.87
2023-02-27T13:12:42.339Z,4.27
2023-02-27T13:16:45.023Z,3.53
2023-02-27T13:20:51.994Z,5.20
2023-02-27T13:24:55.116Z,3.43
2023-02-27T13:28:57.835Z,3.80
2023-02-27T13:33:26.180Z,3.60
2023-02-27T13:37:54.129Z,2.53
2023-02-27T13:41:56.148Z,3.07
2023-02-27T13:46:02.584Z,3.13
2023-02-27T13:50:24.576Z,3.57
2023-02-27T13:54:36.067Z,2.53
2023-02-27T13:58:40.948Z,2.27
2023-02-27T14:02:58.449Z,1.47
2023-02-27T14:07:18.657Z,2.40
2023-02-27T14:11:33.160Z,2.27
2023-02-27T14:15:35.783Z,1.80
2023-02-27T14:19:40.611Z,0.77
2023-02-27T14:23:44.533Z,1.23
2023-02-27T14:28:04.238Z,1.73
2023-02-27T14:32:11.565Z,1.57
2023-02-27T14:36:20.899Z,1.93
2023-02-27T14:40:30.069Z,0.63
2023-02-27T14:44:46.448Z,0.77
2023-02-27T14:49:02.657Z,3.20
2023-02-27T14:53:05.561Z,0.83
2023-02-27T14:57:07.862Z,2.10
2023-02-27T15:01:12.158Z,4.73
2023-02-27T15:05:22.577Z,1.10
2023-02-27T15:09:30.993Z,2.30
2023-02-27T15:13:38.682Z,0.83
2023-02-27T15:17:42.381Z,1.87
2023-02-27T15:21:49.766Z,1.83
2023-02-27T15:25:57.926Z,0.50
2023-02-27T15:30:00.375Z,1.93
2023-02-27T15:34:05.090Z,0.53
2023-02-27T15:38:07.748Z,1.23
2023-02-27T15:42:10.135Z,0.97
2023-02-27T15:46:12.013Z,1.00
2023-02-27T15:50:16.846Z,1.57
2023-02-27T15:54:22.863Z,1.17
2023-02-27T15:59:00.225Z,1.50
2023-02-27T16:03:02.653Z,1.13
2023-02-27T16:07:14.887Z,1.70
2023-02-27T16:11:22.045Z,1.33
2023-02-27T16:15:34.688Z,0.80
2023-02-27T16:19:37.257Z,1.23
2023-02-27T16:23:39.342Z,1.33
2023-02-27T16:27:41.855Z,0.93
2023-02-27T16:31:49.541Z,1.43
2023-02-27T16:35:53.764Z,2.77
2023-02-27T16:39:58.822Z,1.40
2023-02-27T16:44:00.793Z,1.57
2023-02-27T16:48:05.237Z,2.00
2023-02-27T16:52:20.093Z,1.90
2023-02-27T16:56:37.408Z,1.57
2023-02-27T17:00:40.391Z,4.10
2023-02-27T17:04:44.528Z,2.73
2023-02-27T17:08:47.098Z,2.00
2023-02-27T17:12:49.285Z,1.80
2023-02-27T17:16:51.156Z,2.80
2023-02-27T17:20:59.038Z,1.80
2023-02-27T17:25:00.865Z,2.07
2023-02-27T17:29:04.110Z,2.20
2023-02-27T17:33:05.973Z,2.43
2023-02-27T17:37:07.937Z,3.53
2023-02-27T17:41:11.391Z,3.43
2023-02-27T17:45:14.624Z,5.13
2023-02-27T17:49:17.914Z,4.10
2023-02-27T17:53:23.112Z,8.50
2023-02-27T17:57:24.994Z,5.63
2023-02-27T18:01:29.456Z,3.93
2023-02-27T18:05:31.720Z,4.17
2023-02-27T18:09:36.580Z,3.63
2023-02-27T18:13:41.657Z,3.50
2023-02-27T18:18:07.886Z,3.57
2023-02-27T18:22:10.709Z,6.40
2023-02-27T18:26:30.509Z,5.13
2023-02-27T18:30:35.995Z,5.73
2023-02-27T18:34:43.444Z,9.83
2023-02-27T18:38:45.756Z,8.17
2023-02-27T18:42:48.547Z,6.03
2023-02-27T18:46:53.240Z,7.43
2023-02-27T18:51:12.448Z,7.53
2023-02-27T18:55:14.824Z,6.07
2023-02-27T18:59:18.998Z,3.97
2023-02-27T19:03:22.222Z,3.23
2023-02-27T19:07:26.491Z,7.97
2023-02-27T19:11:33.214Z,3.40
2023-02-27T19:15:35.876Z,4.03
2023-02-27T19:19:40.716Z,6.37
2023-02-27T19:23:43.495Z,5.50
2023-02-27T19:27:46.903Z,4.07
2023-02-27T19:31:50.421Z,4.87
2023-02-27T19:35:52.427Z,8.53
2023-02-27T19:39:57.475Z,6.13
2023-02-27T19:44:01.666Z,5.73
2023-02-27T19:48:03.715Z,4.80
2023-02-27T19:52:10.257Z,5.30
2023-02-27T19:56:15.403Z,8.03
2023-02-27T20:00:19.945Z,6.17
2023-02-27T20:04:22.182Z,4.50
2023-02-27T20:08:24.796Z,5.30
2023-02-27T20:12:26.776Z,6.40
2023-02-27T20:16:31.020Z,6.03
2023-02-27T20:20:33.157Z,5.00
2023-02-27T20:24:35.196Z,5.90
2023-02-27T20:28:38.877Z,9.50
2023-02-27T20:32:40.829Z,6.67
2023-02-27T20:36:45.726Z,5.57
2023-02-27T20:40:47.581Z,4.17
2023-02-27T20:44:50.090Z,7.30
2023-02-27T20:48:52.706Z,4.90
2023-02-27T20:52:55.129Z,5.00
2023-02-27T20:56:57.323Z,5.23
2023-02-27T21:01:04.613Z,5.03
2023-02-27T21:05:07.105Z,5.07
2023-02-27T21:09:09.024Z,3.73
2023-02-27T21:13:10.787Z,4.50
2023-02-27T21:17:13.862Z,7.77
2023-02-27T21:21:19.020Z,4.13
2023-02-27T21:25:22.043Z,4.50
2023-02-27T21:29:26.767Z,3.87
2023-02-27T21:33:39.667Z,3.97
2023-02-27T21:37:47.302Z,3.77
2023-02-27T21:41:52.394Z,4.73
2023-02-27T21:45:57.184Z,3.63
2023-02-27T21:50:02.082Z,4.67
2023-02-27T21:54:03.976Z,3.57
2023-02-27T21:58:12.498Z,5.83
2023-02-27T22:02:18.557Z,6.17
2023-02-27T22:06:24.532Z,4.87
2023-02-27T22:10:26.685Z,5.40
2023-02-27T22:14:28.674Z,6.13
2023-02-27T22:18:30.462Z,8.03
2023-02-27T22:22:32.363Z,5.03
2023-02-27T22:26:34.265Z,8.77
2023-02-27T22:30:36.018Z,7.87
2023-02-27T22:34:40.151Z,6.57
2023-02-27T22:38:42.746Z,7.40
2023-02-27T22:42:48.230Z,8.10
2023-02-27T22:46:50.115Z,11.73
2023-02-27T22:51:03.257Z,9.63
2023-02-27T22:55:05.837Z,9.30
2023-02-27T22:59:07.965Z,11.27
2023-02-27T23:03:09.811Z,8.93
2023-02-27T23:07:13.025Z,8.07
2023-02-27T23:11:17.375Z,9.10
2023-02-27T23:15:19.270Z,10.60
2023-02-27T23:19:21.382Z,9.93
2023-02-27T23:23:23.283Z,8.60
2023-02-27T23:27:26.392Z,7.37
2023-02-27T23:31:29.236Z,11.70
2023-02-27T23:35:31.433Z,9.27
2023-02-27T23:39:33.224Z,7.97
2023-02-27T23:43:35.280Z,6.10
2023-02-27T23:47:44.179Z,8.03
2023-02-27T23:51:46.390Z,6.90
2023-02-27T23:55:48.188Z,5.57
2023-02-27T23:59:49.949Z,5.73
